Time;durP1;ratioP1;P1;durP2;ratioP2;P2;SDS_P1;SDS_P2;PMS_P1;PMS_P2;Temp;Humidity;BMP_temperature;BMP_pressure;BME280_temperature;BME280_humidity;BME280_pressure;Samples;Min_cycle;Max_cycle;Signal;HPM_P1;HPM_P2
2023/01/06 00:00:37;;;;;;;0.00;0.00;;;10.50;99.90;;;;;;5051670;28;20037;-70
2023/01/06 00:03:03;;;;;;;3.90;1.65;;;10.50;99.90;;;;;;5052571;28;20052;-70
2023/01/06 00:05:29;;;;;;;0.30;0.30;;;10.50;99.90;;;;;;5074224;28;20365;-70
2023/01/06 00:07:55;;;;;;;34.10;2.55;;;10.50;99.90;;;;;;5067478;28;20048;-72
2023/01/06 00:10:21;;;;;;;0.10;0.10;;;10.50;99.90;;;;;;5079861;28;20567;-72
2023/01/06 00:12:48;;;;;;;0.38;0.38;;;10.50;99.90;;;;;;5051543;28;20079;-72
2023/01/06 00:15:15;;;;;;;0.85;0.80;;;10.50;99.90;;;;;;5070690;28;20488;-72
2023/01/06 00:17:41;;;;;;;1.38;0.80;;;10.50;99.90;;;;;;5078346;28;20549;-72
2023/01/06 00:20:08;;;;;;;0.22;0.22;;;10.50;99.90;;;;;;5071354;28;20051;-70
2023/01/06 00:22:34;;;;;;;0.10;0.10;;;10.50;99.90;;;;;;5090162;28;20547;-71
2023/01/06 00:25:00;;;;;;;0.10;0.10;;;10.50;99.90;;;;;;5070416;28;20647;-71
2023/01/06 00:27:26;;;;;;;1.00;1.00;;;10.50;99.90;;;;;;5072160;28;20079;-71
2023/01/06 00:29:51;;;;;;;0.05;0.05;;;10.50;99.90;;;;;;5054400;28;20087;-70
2023/01/06 00:32:17;;;;;;;0.10;0.10;;;10.50;99.90;;;;;;5071563;28;20491;-70
2023/01/06 00:34:43;;;;;;;1.38;1.27;;;10.40;99.90;;;;;;5069622;28;20131;-70
2023/01/06 00:37:09;;;;;;;9.32;1.55;;;10.40;99.90;;;;;;5090178;28;20460;-70
2023/01/06 00:39:35;;;;;;;0.10;0.10;;;10.50;99.90;;;;;;5071629;28;20495;-70
2023/01/06 00:42:04;;;;;;;30.55;1.30;;;10.50;99.90;;;;;;5058438;28;20044;-71
2023/01/06 00:44:36;;;;;;;0.10;0.10;;;10.50;99.90;;;;;;5054023;28;20040;-70
2023/01/06 00:47:04;;;;;;;0.00;0.00;;;10.40;99.90;;;;;;5029415;28;20049;-70
2023/01/06 00:49:30;;;;;;;0.60;0.60;;;10.40;99.90;;;;;;5029864;28;20398;-70
2023/01/06 00:51:55;;;;;;;0.08;0.08;;;10.40;99.90;;;;;;5046203;28;20045;-70
2023/01/06 00:54:21;;;;;;;0.10;0.10;;;10.40;99.90;;;;;;5048216;28;20570;-70
2023/01/06 00:56:51;;;;;;;0.98;0.98;;;10.40;99.90;;;;;;5037607;28;20094;-70
2023/01/06 00:59:22;;;;;;;0.80;0.63;;;10.40;99.90;;;;;;5047688;28;20045;-70
2023/01/06 01:01:50;;;;;;;0.20;0.20;;;10.40;99.90;;;;;;5035126;28;20469;-70
2023/01/06 01:04:17;;;;;;;0.15;0.15;;;10.40;99.90;;;;;;5039350;28;20124;-71
2023/01/06 01:06:44;;;;;;;0.10;0.10;;;10.40;99.90;;;;;;5035960;28;20053;-70
2023/01/06 01:09:15;;;;;;;0.10;0.10;;;10.40;99.90;;;;;;5030025;28;20045;-70
2023/01/06 01:14:25;;;;;;;0.10;0.10;;;10.40;99.90;;;;;;5028556;28;20174;-71
2023/01/06 01:16:51;;;;;;;0.10;0.10;;;10.40;99.90;;;;;;5034276;28;20128;-71
2023/01/06 01:19:17;;;;;;;0.13;0.13;;;10.40;99.90;;;;;;5042002;28;20056;-71
2023/01/06 01:21:43;;;;;;;1.52;1.42;;;10.40;99.90;;;;;;5044558;28;20041;-70
2023/01/06 01:24:09;;;;;;;2.20;1.27;;;10.40;99.90;;;;;;5029983;28;20064;-71
2023/01/06 01:26:35;;;;;;;1.10;0.98;;;10.40;99.90;;;;;;5028456;28;20372;-71
2023/01/06 01:29:01;;;;;;;0.25;0.25;;;10.40;99.90;;;;;;5029596;28;20041;-71
2023/01/06 01:31:26;;;;;;;1.55;1.45;;;10.30;99.90;;;;;;5029827;28;20061;-71
2023/01/06 01:33:52;;;;;;;0.00;0.00;;;10.40;99.90;;;;;;5028191;28;20056;-70
2023/01/06 01:36:18;;;;;;;1.25;1.00;;;10.30;99.90;;;;;;5030740;28;20489;-71
2023/01/06 01:38:44;;;;;;;1.85;1.70;;;10.40;99.90;;;;;;5048002;28;20397;-71
2023/01/06 01:41:16;;;;;;;0.45;0.45;;;10.40;99.90;;;;;;5026836;28;20080;-70
2023/01/06 01:43:42;;;;;;;0.10;0.10;;;10.40;99.90;;;;;;5035848;28;20440;-72
2023/01/06 01:46:09;;;;;;;0.00;0.00;;;10.40;99.90;;;;;;5050953;28;20068;-73
2023/01/06 01:48:36;;;;;;;0.10;0.10;;;10.40;99.90;;;;;;5064254;28;20907;-71
2023/01/06 01:51:11;;;;;;;1.45;1.20;;;10.40;99.90;;;;;;5048449;28;20137;-71
2023/01/06 01:53:50;;;;;;;0.10;0.10;;;10.40;99.90;;;;;;5068945;28;20043;-71
2023/01/06 01:56:21;;;;;;;0.00;0.00;;;10.40;99.90;;;;;;5065683;28;20145;-71
2023/01/06 01:58:58;;;;;;;0.15;0.15;;;10.50;99.90;;;;;;5049848;28;20073;-70
2023/01/06 02:01:24;;;;;;;0.00;0.00;;;10.40;99.90;;;;;;5087352;28;20047;-71
2023/01/06 02:03:50;;;;;;;0.10;0.10;;;10.50;99.90;;;;;;5069153;28;20508;-71
2023/01/06 02:06:21;;;;;;;7.50;2.83;;;10.50;99.90;;;;;;5058500;28;20141;-71
2023/01/06 02:09:01;;;;;;;0.28;0.28;;;10.50;99.90;;;;;;5057168;28;20921;-70
2023/01/06 02:11:30;;;;;;;0.10;0.10;;;10.50;99.90;;;;;;5062721;28;20068;-71
2023/01/06 02:14:11;;;;;;;0.00;0.00;;;10.50;99.90;;;;;;5057608;28;20508;-71
2023/01/06 02:16:51;;;;;;;0.60;0.35;;;10.50;99.90;;;;;;5046960;28;20041;-70
2023/01/06 02:19:28;;;;;;;7.32;1.88;;;10.50;99.90;;;;;;5056375;28;20429;-70
2023/01/06 02:22:12;;;;;;;0.10;0.10;;;10.50;99.90;;;;;;5054452;28;20049;-70
2023/01/06 02:25:09;;;;;;;0.10;0.10;;;10.60;99.90;;;;;;5046275;28;20551;-70
2023/01/06 02:27:35;;;;;;;0.10;0.10;;;10.50;99.90;;;;;;5067461;28;20072;-70
2023/01/06 02:30:15;;;;;;;0.10;0.10;;;10.50;99.90;;;;;;5049626;28;20148;-71
2023/01/06 02:32:54;;;;;;;0.08;0.08;;;10.50;99.90;;;;;;5055855;28;20045;-71
2023/01/06 02:35:37;;;;;;;0.10;0.10;;;10.50;99.90;;;;;;5053070;28;20069;-71
2023/01/06 02:38:08;;;;;;;0.10;0.10;;;10.60;99.90;;;;;;5052037;28;20117;-71
2023/01/06 02:40:48;;;;;;;4.05;0.95;;;10.60;99.90;;;;;;5064675;28;20060;-70
2023/01/06 02:43:41;;;;;;;0.65;0.65;;;10.60;99.90;;;;;;5068425;28;20067;-70
2023/01/06 02:46:20;;;;;;;0.35;0.35;;;10.60;99.90;;;;;;5071180;28;20052;-70
2023/01/06 02:49:13;;;;;;;0.00;0.00;;;10.60;99.90;;;;;;5090320;28;20472;-70
2023/01/06 02:52:08;;;;;;;0.10;0.10;;;10.50;99.90;;;;;;5072034;28;20044;-70
2023/01/06 02:55:01;;;;;;;0.00;0.00;;;10.60;99.90;;;;;;5091678;28;20062;-72
2023/01/06 02:57:43;;;;;;;0.63;0.63;;;10.60;99.90;;;;;;5056567;28;20039;-70
2023/01/06 03:00:14;;;;;;;1.58;1.48;;;10.60;99.90;;;;;;5062538;28;20515;-70
2023/01/06 03:02:43;;;;;;;0.10;0.10;;;10.60;99.90;;;;;;5075120;28;20044;-69
2023/01/06 03:05:12;;;;;;;0.10;0.10;;;10.60;99.90;;;;;;5072235;28;20048;-70
2023/01/06 03:07:39;;;;;;;0.57;0.57;;;10.60;99.90;;;;;;5073758;28;20043;-70
2023/01/06 03:10:07;;;;;;;0.08;0.08;;;10.50;99.90;;;;;;5091867;28;20149;-70
2023/01/06 03:12:59;;;;;;;0.10;0.10;;;10.60;99.90;;;;;;5078543;28;20048;-71
2023/01/06 03:15:25;;;;;;;0.10;0.10;;;10.60;99.90;;;;;;5074058;28;20082;-70
2023/01/06 03:17:51;;;;;;;1.65;1.30;;;10.60;99.90;;;;;;5090952;28;20514;-69
2023/01/06 03:20:18;;;;;;;0.10;0.10;;;10.50;99.90;;;;;;5091836;28;20039;-70
2023/01/06 03:22:44;;;;;;;0.10;0.10;;;10.50;99.90;;;;;;5072530;28;20047;-72
2023/01/06 03:25:10;;;;;;;4.03;2.28;;;10.50;99.90;;;;;;5078013;28;20723;-72
2023/01/06 03:27:36;;;;;;;0.20;0.20;;;10.50;99.90;;;;;;5070471;28;20373;-72
2023/01/06 03:30:08;;;;;;;0.08;0.08;;;10.50;99.90;;;;;;5070567;28;20047;-72
2023/01/06 03:32:52;;;;;;;0.10;0.10;;;10.50;99.90;;;;;;5076436;28;20068;-72
2023/01/06 03:35:35;;;;;;;0.77;0.77;;;10.50;99.90;;;;;;5076204;28;20051;-72
2023/01/06 03:38:18;;;;;;;0.10;0.10;;;10.50;99.90;;;;;;5065630;28;20032;-69
2023/01/06 03:40:56;;;;;;;0.28;0.28;;;10.50;99.90;;;;;;5052547;28;20056;-69
2023/01/06 03:43:48;;;;;;;0.00;0.00;;;10.50;99.90;;;;;;5085120;28;20046;-72
2023/01/06 03:46:35;;;;;;;0.10;0.10;;;10.50;99.90;;;;;;5077018;28;20048;-72
2023/01/06 03:49:30;;;;;;;0.10;0.10;;;10.60;99.90;;;;;;5070829;28;20044;-70
2023/01/06 03:52:04;;;;;;;0.10;0.10;;;10.50;99.90;;;;;;5059837;28;20053;-71
2023/01/06 03:54:50;;;;;;;;;;;10.50;99.90;;;;;;5083942;28;20046;-69
2023/01/06 03:57:20;;;;;;;0.50;0.50;;;10.40;99.90;;;;;;5070605;28;20699;-70
2023/01/06 04:00:04;;;;;;;0.10;0.10;;;10.40;99.90;;;;;;5070421;28;20149;-70
2023/01/06 04:02:30;;;;;;;0.10;0.10;;;10.40;99.90;;;;;;5070055;28;20055;-70
2023/01/06 04:05:17;;;;;;;0.10;0.10;;;10.30;99.90;;;;;;5070719;28;20704;-70
2023/01/06 04:07:43;;;;;;;0.10;0.10;;;10.30;99.90;;;;;;5074995;28;20866;-70
2023/01/06 04:10:10;;;;;;;0.10;0.10;;;10.30;99.90;;;;;;5088968;28;20052;-70
2023/01/06 04:12:39;;;;;;;0.10;0.10;;;10.30;99.90;;;;;;5090486;28;20121;-70
2023/01/06 04:15:10;;;;;;;0.98;0.70;;;10.30;99.90;;;;;;5058162;28;20052;-70
2023/01/06 04:17:37;;;;;;;0.32;0.32;;;10.40;99.90;;;;;;5070970;28;20091;-70
2023/01/06 04:20:04;;;;;;;0.20;0.20;;;10.40;99.90;;;;;;5054622;28;20048;-70
2023/01/06 04:22:30;;;;;;;0.10;0.10;;;10.40;99.90;;;;;;5083660;28;20108;-71
2023/01/06 04:24:55;;;;;;;0.10;0.10;;;10.40;99.90;;;;;;5084817;28;20516;-70
2023/01/06 04:27:21;;;;;;;0.10;0.10;;;10.40;99.90;;;;;;5070043;28;20508;-70
2023/01/06 04:29:47;;;;;;;0.10;0.10;;;10.40;99.90;;;;;;5071613;28;20036;-70
2023/01/06 04:32:13;;;;;;;0.20;0.20;;;10.40;99.90;;;;;;5090684;28;20498;-70
2023/01/06 04:34:38;;;;;;;0.10;0.10;;;10.50;99.90;;;;;;5073707;28;20040;-70
2023/01/06 04:37:04;;;;;;;0.63;0.63;;;10.40;99.90;;;;;;5069447;28;20144;-70
2023/01/06 04:39:30;;;;;;;0.15;0.15;;;10.50;99.90;;;;;;5068754;28;20029;-69
2023/01/06 04:41:55;;;;;;;0.08;0.08;;;10.50;99.90;;;;;;5069819;28;20131;-69
2023/01/06 04:44:21;;;;;;;0.10;0.10;;;10.60;99.90;;;;;;5082402;28;20498;-70
2023/01/06 04:46:47;;;;;;;0.10;0.10;;;10.60;99.90;;;;;;5074107;28;20134;-70
2023/01/06 04:49:13;;;;;;;0.20;0.20;;;10.60;99.90;;;;;;5054007;28;20506;-69
2023/01/06 04:51:38;;;;;;;0.45;0.43;;;10.60;99.90;;;;;;5075273;28;20036;-68
2023/01/06 04:54:04;;;;;;;0.30;0.30;;;10.60;99.90;;;;;;5069371;28;20049;-69
2023/01/06 04:56:30;;;;;;;0.10;0.10;;;10.60;99.90;;;;;;5051822;28;20071;-69
2023/01/06 04:58:57;;;;;;;0.10;0.10;;;10.60;99.90;;;;;;5068941;28;20044;-69
2023/01/06 05:01:24;;;;;;;0.47;0.47;;;10.60;99.90;;;;;;5068666;28;20132;-68
2023/01/06 05:03:50;;;;;;;0.10;0.10;;;10.60;99.90;;;;;;5080271;28;20043;-69
2023/01/06 05:06:16;;;;;;;0.25;0.25;;;10.70;99.90;;;;;;5078618;28;20048;-69
2023/01/06 05:08:43;;;;;;;0.22;0.22;;;10.60;99.90;;;;;;5051464;28;20052;-69
2023/01/06 05:11:20;;;;;;;0.20;0.20;;;10.70;99.90;;;;;;5070097;28;20098;-69
2023/01/06 05:13:46;;;;;;;0.32;0.32;;;10.60;99.90;;;;;;5060996;28;20050;-70
2023/01/06 05:16:23;;;;;;;0.10;0.10;;;10.60;99.90;;;;;;5089184;28;20406;-70
2023/01/06 05:18:49;;;;;;;0.10;0.10;;;10.50;99.90;;;;;;5087917;28;20369;-71
2023/01/06 05:21:15;;;;;;;0.20;0.20;;;10.40;99.90;;;;;;5084234;28;20040;-70
2023/01/06 05:23:41;;;;;;;0.00;0.00;;;10.30;99.90;;;;;;5089066;28;20050;-71
2023/01/06 05:26:08;;;;;;;0.50;0.50;;;10.30;99.90;;;;;;5071643;28;20040;-71
2023/01/06 05:28:34;;;;;;;0.10;0.10;;;10.20;99.90;;;;;;5081584;28;20040;-72
2023/01/06 05:31:01;;;;;;;0.00;0.00;;;10.20;99.90;;;;;;5080163;28;20202;-72
2023/01/06 05:33:27;;;;;;;0.10;0.10;;;10.10;99.90;;;;;;5049857;28;20056;-72
2023/01/06 05:36:05;;;;;;;0.10;0.10;;;10.10;99.90;;;;;;5068658;28;20040;-72
2023/01/06 05:38:30;;;;;;;1.67;1.58;;;10.00;99.90;;;;;;5067980;28;20553;-74
2023/01/06 05:40:56;;;;;;;0.05;0.05;;;10.00;99.90;;;;;;5050047;28;20052;-73
2023/01/06 05:43:23;;;;;;;0.10;0.10;;;10.00;99.90;;;;;;5076118;28;20504;-74
2023/01/06 05:45:49;;;;;;;0.10;0.10;;;10.00;99.90;;;;;;5084478;28;20124;-73
2023/01/06 05:48:15;;;;;;;0.10;0.10;;;10.00;99.90;;;;;;5087110;28;20133;-73
2023/01/06 05:50:40;;;;;;;0.10;0.10;;;10.00;99.90;;;;;;5071046;28;20048;-73
2023/01/06 05:53:06;;;;;;;0.30;0.30;;;10.00;99.90;;;;;;5087517;28;20039;-73
2023/01/06 05:55:32;;;;;;;0.03;0.03;;;10.00;99.90;;;;;;5086995;28;20047;-75
2023/01/06 05:57:58;;;;;;;0.08;0.08;;;9.90;99.90;;;;;;5085255;28;20040;-74
2023/01/06 06:00:24;;;;;;;1.65;1.42;;;9.90;99.90;;;;;;5067783;28;20178;-73
2023/01/06 06:02:49;;;;;;;0.10;0.10;;;9.90;99.90;;;;;;5086049;28;20036;-72
2023/01/06 06:05:15;;;;;;;0.08;0.08;;;9.90;99.90;;;;;;5073663;28;20476;-73
2023/01/06 06:07:41;;;;;;;1.80;1.20;;;9.90;99.90;;;;;;5051692;28;20133;-72
2023/01/06 06:10:08;;;;;;;1.55;1.45;;;9.90;99.90;;;;;;5069369;28;20041;-73
2023/01/06 06:12:34;;;;;;;0.20;0.20;;;9.90;99.90;;;;;;5076256;28;20063;-72
2023/01/06 06:15:00;;;;;;;1.88;1.17;;;9.90;99.90;;;;;;5075514;28;20048;-73
2023/01/06 06:17:26;;;;;;;0.75;0.65;;;10.00;99.90;;;;;;5073521;28;20051;-73
2023/01/06 06:19:51;;;;;;;0.15;0.15;;;9.90;99.90;;;;;;5068028;28;20148;-74
2023/01/06 06:22:17;;;;;;;0.30;0.30;;;9.90;99.90;;;;;;5080814;28;20515;-73
2023/01/06 06:24:43;;;;;;;0.17;0.17;;;9.90;99.90;;;;;;5086966;28;20047;-73
2023/01/06 06:27:09;;;;;;;0.10;0.10;;;9.90;99.90;;;;;;5069821;28;20056;-73
2023/01/06 06:29:35;;;;;;;0.10;0.10;;;9.90;99.90;;;;;;5087661;28;20071;-74
2023/01/06 06:32:00;;;;;;;0.03;0.03;;;10.00;99.90;;;;;;5051202;28;20044;-73
2023/01/06 06:34:26;;;;;;;0.20;0.20;;;10.00;99.90;;;;;;5073701;28;20443;-73
2023/01/06 06:36:51;;;;;;;0.20;0.20;;;10.00;99.90;;;;;;5067508;28;20156;-73
2023/01/06 06:39:17;;;;;;;0.10;0.10;;;10.00;99.90;;;;;;5068413;28;20033;-74
2023/01/06 06:41:43;;;;;;;0.10;0.10;;;10.00;99.90;;;;;;5069396;28;20052;-73
2023/01/06 06:44:09;;;;;;;0.00;0.00;;;10.10;99.90;;;;;;5097874;28;20036;-75
2023/01/06 06:46:35;;;;;;;0.40;0.40;;;10.00;99.90;;;;;;5108337;28;20048;-74
2023/01/06 06:49:00;;;;;;;0.20;0.20;;;10.00;99.90;;;;;;5088726;28;20129;-74
2023/01/06 06:51:28;;;;;;;0.10;0.10;;;10.00;99.90;;;;;;5078512;28;20039;-74
2023/01/06 06:53:54;;;;;;;0.30;0.30;;;10.00;99.90;;;;;;5088159;28;20549;-74
2023/01/06 06:56:20;;;;;;;0.10;0.10;;;10.10;99.90;;;;;;5088664;28;20040;-73
2023/01/06 06:58:46;;;;;;;0.10;0.10;;;10.00;99.90;;;;;;5076088;28;20036;-73
2023/01/06 07:01:15;;;;;;;0.32;0.32;;;10.00;99.90;;;;;;5060688;28;20093;-73
2023/01/06 07:03:40;;;;;;;0.10;0.10;;;10.00;99.90;;;;;;5088098;28;20055;-72
2023/01/06 07:06:09;;;;;;;0.63;0.63;;;9.90;99.90;;;;;;5085675;28;20040;-75
2023/01/06 07:08:34;;;;;;;0.10;0.10;;;9.80;99.90;;;;;;5049793;28;20545;-73
2023/01/06 07:11:00;;;;;;;0.47;0.47;;;9.70;99.90;;;;;;5077748;28;20040;-72
2023/01/06 07:13:26;;;;;;;0.10;0.10;;;9.50;99.90;;;;;;5080611;28;20130;-72
2023/01/06 07:15:52;;;;;;;0.10;0.10;;;9.50;99.90;;;;;;5064269;28;20049;-73
2023/01/06 07:18:18;;;;;;;0.15;0.15;;;9.30;99.90;;;;;;5069603;28;20473;-73
2023/01/06 07:20:49;;;;;;;1.35;1.25;;;9.20;99.90;;;;;;5071002;28;20040;-73
2023/01/06 07:23:15;;;;;;;0.10;0.10;;;9.10;99.90;;;;;;5070762;28;20068;-74
2023/01/06 07:25:41;;;;;;;0.10;0.10;;;9.00;99.90;;;;;;5070564;28;20397;-73
2023/01/06 07:28:08;;;;;;;0.90;0.90;;;8.90;99.90;;;;;;5068794;28;20066;-75
2023/01/06 07:30:35;;;;;;;0.10;0.10;;;8.80;99.90;;;;;;5074595;28;20047;-74
2023/01/06 07:33:01;;;;;;;0.82;0.82;;;8.80;99.90;;;;;;5074727;28;20036;-74
2023/01/06 07:35:27;;;;;;;0.00;0.00;;;8.70;99.90;;;;;;5073423;28;20056;-74
2023/01/06 07:37:53;;;;;;;0.10;0.10;;;8.70;99.90;;;;;;5090398;28;20039;-74
2023/01/06 07:40:18;;;;;;;0.10;0.10;;;8.70;99.90;;;;;;5070526;28;20040;-74
2023/01/06 07:42:44;;;;;;;0.00;0.00;;;8.60;99.90;;;;;;5080571;28;20052;-75
2023/01/06 07:45:11;;;;;;;0.10;0.10;;;8.60;99.90;;;;;;5070733;28;20547;-75
2023/01/06 07:47:36;;;;;;;0.52;0.52;;;8.60;99.90;;;;;;5069897;28;20484;-75
2023/01/06 07:50:04;;;;;;;2.55;2.10;;;8.60;99.90;;;;;;5070913;28;20036;-75
2023/01/06 07:52:30;;;;;;;0.10;0.10;;;8.50;99.90;;;;;;5070328;28;20442;-73
2023/01/06 07:54:59;;;;;;;0.10;0.10;;;8.50;99.90;;;;;;5082651;28;20113;-73
2023/01/06 07:57:26;;;;;;;0.20;0.20;;;8.40;99.90;;;;;;5090872;28;20044;-73
2023/01/06 07:59:52;;;;;;;0.10;0.10;;;8.40;99.90;;;;;;5090761;28;20128;-73
2023/01/06 08:02:17;;;;;;;0.00;0.00;;;8.30;99.90;;;;;;5077099;28;20076;-73
2023/01/06 08:04:43;;;;;;;0.10;0.10;;;8.30;99.90;;;;;;5073935;28;20059;-73
2023/01/06 08:07:09;;;;;;;0.10;0.10;;;8.30;99.90;;;;;;5088126;28;20055;-73
2023/01/06 08:09:35;;;;;;;0.10;0.10;;;8.20;99.90;;;;;;5077600;28;20408;-73
2023/01/06 08:12:00;;;;;;;0.40;0.40;;;8.30;99.90;;;;;;5072007;28;20085;-73
2023/01/06 08:14:26;;;;;;;1.95;0.93;;;8.20;99.90;;;;;;5069232;28;20051;-73
2023/01/06 08:16:52;;;;;;;0.10;0.10;;;8.20;99.90;;;;;;5053197;28;20499;-72
2023/01/06 08:19:17;;;;;;;0.20;0.20;;;8.20;99.90;;;;;;5077452;28;20040;-73
2023/01/06 08:21:43;;;;;;;0.00;0.00;;;8.20;99.90;;;;;;5068143;28;20052;-73
2023/01/06 08:24:09;;;;;;;0.20;0.20;;;8.20;99.90;;;;;;5070900;28;20395;-73
2023/01/06 08:26:34;;;;;;;0.22;0.22;;;8.20;99.90;;;;;;5052081;28;20483;-74
2023/01/06 08:29:00;;;;;;;0.10;0.10;;;8.20;99.90;;;;;;5051541;28;20048;-73
2023/01/06 08:31:26;;;;;;;0.10;0.10;;;8.20;99.90;;;;;;5069265;28;20153;-73
2023/01/06 08:33:52;;;;;;;0.10;0.10;;;8.20;99.90;;;;;;5069943;28;20122;-73
2023/01/06 08:36:20;;;;;;;0.10;0.10;;;8.20;99.90;;;;;;5069114;28;20052;-73
2023/01/06 08:38:47;;;;;;;0.60;0.60;;;8.20;99.90;;;;;;5069421;28;20040;-73
2023/01/06 08:41:13;;;;;;;7.45;1.27;;;8.20;99.90;;;;;;5082232;28;20076;-73
2023/01/06 08:43:41;;;;;;;0.30;0.30;;;8.20;99.90;;;;;;5069045;28;20134;-73
2023/01/06 08:46:10;;;;;;;0.00;0.00;;;8.10;99.90;;;;;;5089133;28;20044;-73
2023/01/06 08:48:36;;;;;;;0.65;0.47;;;8.20;99.90;;;;;;5090051;28;20139;-73
2023/01/06 08:51:07;;;;;;;0.10;0.10;;;8.20;99.90;;;;;;5057708;28;20555;-74
2023/01/06 08:53:33;;;;;;;0.15;0.15;;;8.20;99.90;;;;;;5051773;28;20346;-73
2023/01/06 08:55:58;;;;;;;0.10;0.10;;;8.20;99.90;;;;;;5067197;28;20063;-70
2023/01/06 08:58:24;;;;;;;0.10;0.10;;;8.20;99.90;;;;;;5082406;28;20039;-70
2023/01/06 09:00:50;;;;;;;8.68;1.48;;;8.30;99.90;;;;;;5098693;28;20044;-71
2023/01/06 09:03:16;;;;;;;0.10;0.10;;;8.30;99.90;;;;;;5084335;28;20051;-73
2023/01/06 09:05:42;;;;;;;0.10;0.10;;;8.40;99.90;;;;;;5093474;28;20089;-73
2023/01/06 09:08:08;;;;;;;0.20;0.20;;;8.40;99.90;;;;;;5087258;28;20133;-73
2023/01/06 09:10:38;;;;;;;0.00;0.00;;;8.50;99.90;;;;;;5070020;28;20082;-73
2023/01/06 09:13:04;;;;;;;0.28;0.28;;;8.50;99.90;;;;;;5089692;28;20510;-73
2023/01/06 09:15:30;;;;;;;0.63;0.55;;;8.50;99.90;;;;;;5068632;28;20079;-73
2023/01/06 09:17:56;;;;;;;1.17;1.17;;;8.60;99.90;;;;;;5068204;28;20495;-74
2023/01/06 09:20:22;;;;;;;0.10;0.10;;;8.60;99.90;;;;;;5050875;28;20148;-71
2023/01/06 09:22:47;;;;;;;0.20;0.20;;;8.70;99.90;;;;;;5050892;28;20044;-75
2023/01/06 09:25:13;;;;;;;8.30;2.97;;;8.70;99.90;;;;;;5058058;28;20113;-75
2023/01/06 09:27:39;;;;;;;0.15;0.15;;;8.80;99.90;;;;;;5068840;28;20149;-76
2023/01/06 09:30:06;;;;;;;0.10;0.10;;;8.80;99.90;;;;;;5068940;28;20391;-75
2023/01/06 09:32:32;;;;;;;1.25;0.90;;;8.90;99.90;;;;;;5088463;28;20051;-75
2023/01/06 09:35:01;;;;;;;0.10;0.10;;;8.80;99.90;;;;;;5070676;28;20040;-75
2023/01/06 09:37:27;;;;;;;0.10;0.10;;;8.90;99.90;;;;;;5087854;28;20051;-75
2023/01/06 09:39:53;;;;;;;0.10;0.10;;;8.90;99.90;;;;;;5075140;28;20040;-75
2023/01/06 09:42:30;;;;;;;0.10;0.10;;;8.90;99.90;;;;;;5093033;28;20054;-74
2023/01/06 09:45:04;;;;;;;0.10;0.10;;;8.90;99.90;;;;;;5091182;28;20052;-74
2023/01/06 09:47:36;;;;;;;0.00;0.00;;;9.00;99.90;;;;;;5074220;28;20561;-74
2023/01/06 09:50:05;;;;;;;0.10;0.10;;;9.00;99.90;;;;;;5050877;28;20274;-74
2023/01/06 09:52:51;;;;;;;0.00;0.00;;;9.00;99.90;;;;;;5068970;28;20472;-75
2023/01/06 09:55:56;;;;;;;0.10;0.10;;;9.10;99.90;;;;;;5068319;28;20051;-75
2023/01/06 09:58:31;;;;;;;0.10;0.10;;;9.10;99.90;;;;;;5022727;28;20488;-75
2023/01/06 10:01:02;;;;;;;2.45;1.63;;;9.20;99.90;;;;;;5076023;28;20047;-75
2023/01/06 10:03:27;;;;;;;0.10;0.10;;;9.20;99.90;;;;;;5085139;28;20036;-74
2023/01/06 10:06:25;;;;;;;0.10;0.10;;;9.10;99.90;;;;;;5063803;28;20593;-73
2023/01/06 10:09:24;;;;;;;0.40;0.40;;;9.20;99.90;;;;;;5045711;28;20045;-74
2023/01/06 10:12:26;;;;;;;0.10;0.10;;;9.20;99.90;;;;;;5082686;28;20051;-74
2023/01/06 10:15:16;;;;;;;0.10;0.10;;;9.20;99.90;;;;;;5053845;28;20144;-73
2023/01/06 10:18:12;;;;;;;0.00;0.00;;;9.30;99.90;;;;;;5048823;28;20411;-74
2023/01/06 10:21:08;;;;;;;1.30;1.20;;;9.30;99.90;;;;;;5068483;28;20076;-74
2023/01/06 10:23:48;;;;;;;0.38;0.38;;;9.30;99.90;;;;;;5067274;28;20048;-74
2023/01/06 10:26:24;;;;;;;1.08;1.08;;;9.40;99.90;;;;;;5088547;28;20044;-74
2023/01/06 10:28:53;;;;;;;0.38;0.38;;;9.40;99.90;;;;;;5086586;28;20047;-74
2023/01/06 10:31:25;;;;;;;1.55;1.35;;;9.50;99.90;;;;;;5071664;28;20044;-74
2023/01/06 10:33:53;;;;;;;0.10;0.10;;;9.60;99.90;;;;;;5068077;28;20529;-73
2023/01/06 10:36:39;;;;;;;0.10;0.10;;;9.60;99.90;;;;;;5067391;28;20090;-76
2023/01/06 10:39:12;;;;;;;0.08;0.08;;;9.60;99.90;;;;;;5067270;28;20053;-72
2023/01/06 10:41:42;;;;;;;0.52;0.52;;;9.70;99.90;;;;;;5073175;28;20075;-74
2023/01/06 10:44:12;;;;;;;2.72;1.17;;;9.70;99.90;;;;;;5081900;28;20059;-73
2023/01/06 10:46:38;;;;;;;0.10;0.10;;;9.80;99.90;;;;;;5085095;28;20052;-73
2023/01/06 10:49:13;;;;;;;0.03;0.03;;;9.80;99.90;;;;;;5084401;28;20487;-73
2023/01/06 10:51:43;;;;;;;0.10;0.10;;;9.80;99.90;;;;;;5090261;28;20044;-73
2023/01/06 10:54:22;;;;;;;0.10;0.10;;;9.80;99.90;;;;;;5091183;28;20475;-74
2023/01/06 10:56:59;;;;;;;1.55;0.93;;;9.80;99.90;;;;;;5084804;28;20089;-73
2023/01/06 10:59:24;;;;;;;10.02;2.15;;;9.80;99.90;;;;;;5072862;28;20093;-74
2023/01/06 11:01:53;;;;;;;0.05;0.05;;;9.80;99.90;;;;;;5091892;28;20032;-73
2023/01/06 11:04:20;;;;;;;0.10;0.10;;;9.90;99.90;;;;;;5072119;28;20064;-73
2023/01/06 11:06:56;;;;;;;0.65;0.65;;;10.00;99.90;;;;;;5068426;28;20097;-73
2023/01/06 11:09:45;;;;;;;0.00;0.00;;;9.90;99.90;;;;;;5092398;28;20039;-72
2023/01/06 11:12:16;;;;;;;0.25;0.25;;;10.00;99.90;;;;;;5071799;28;20488;-73
2023/01/06 11:14:48;;;;;;;7.68;2.40;;;10.00;99.90;;;;;;5071831;28;20041;-73
2023/01/06 11:17:15;;;;;;;0.20;0.20;;;10.00;99.90;;;;;;5070372;28;20476;-73
2023/01/06 11:19:45;;;;;;;1.08;0.93;;;10.00;99.90;;;;;;5071093;28;20094;-73
2023/01/06 11:22:28;;;;;;;0.43;0.43;;;10.00;99.90;;;;;;5055682;28;20039;-73
2023/01/06 11:24:54;;;;;;;0.10;0.10;;;9.90;99.90;;;;;;5090938;28;20172;-74
2023/01/06 11:27:20;;;;;;;0.00;0.00;;;10.00;99.90;;;;;;5082266;28;20490;-74
2023/01/06 11:29:45;;;;;;;0.30;0.30;;;10.00;99.90;;;;;;5070791;28;20427;-73
2023/01/06 11:32:24;;;;;;;0.10;0.10;;;10.10;99.90;;;;;;5069636;28;20041;-73
2023/01/06 11:35:05;;;;;;;0.20;0.20;;;10.10;99.90;;;;;;5071095;28;20122;-73
2023/01/06 11:37:39;;;;;;;0.00;0.00;;;10.20;99.90;;;;;;5080671;28;20483;-73
2023/01/06 11:40:28;;;;;;;;;;;10.20;99.90;;;;;;5071473;28;20044;-73
2023/01/06 11:42:58;;;;;;;0.47;0.47;;;10.20;99.90;;;;;;5065760;28;20336;-73
2023/01/06 11:45:34;;;;;;;0.10;0.10;;;10.20;99.90;;;;;;5071635;28;20460;-74
2023/01/06 11:48:04;;;;;;;0.10;0.10;;;10.20;99.90;;;;;;5080061;28;20044;-72
2023/01/06 11:50:30;;;;;;;0.10;0.10;;;10.40;99.90;;;;;;5070630;28;20404;-71
2023/01/06 11:53:01;;;;;;;0.75;0.75;;;10.40;99.90;;;;;;5052439;28;20068;-71
2023/01/06 11:55:28;;;;;;;0.10;0.10;;;10.50;99.90;;;;;;5059880;28;20048;-73
2023/01/06 11:58:18;;;;;;;1.10;0.95;;;10.50;99.90;;;;;;5051843;28;20114;-74
2023/01/06 12:00:51;;;;;;;0.20;0.20;;;10.50;99.90;;;;;;5051739;28;20719;-73
2023/01/06 12:03:40;;;;;;;0.30;0.30;;;10.50;99.90;;;;;;5069121;28;20024;-74
2023/01/06 12:06:29;;;;;;;0.30;0.30;;;10.60;99.90;;;;;;5079456;28;20045;-73
2023/01/06 12:09:04;;;;;;;4.97;2.70;;;10.60;99.90;;;;;;5061081;28;20139;-74
2023/01/06 12:11:41;;;;;;;0.22;0.22;;;10.50;99.90;;;;;;5101152;28;20051;-74
2023/01/06 12:14:16;;;;;;;0.10;0.10;;;10.60;99.90;;;;;;5069510;28;20644;-73
2023/01/06 12:16:53;;;;;;;0.30;0.30;;;10.60;99.90;;;;;;5069279;28;20403;-74
2023/01/06 12:19:42;;;;;;;0.00;0.00;;;10.50;99.90;;;;;;5070268;28;20128;-73
2023/01/06 12:22:34;;;;;;;0.20;0.20;;;10.50;99.90;;;;;;5068714;28;20876;-74
2023/01/06 12:25:01;;;;;;;1.33;1.23;;;10.50;99.90;;;;;;5073066;28;20063;-73
2023/01/06 12:27:47;;;;;;;0.10;0.10;;;10.40;99.90;;;;;;5075187;28;20528;-73
2023/01/06 12:30:22;;;;;;;1.30;1.27;;;10.30;99.90;;;;;;5072535;28;20547;-74
2023/01/06 12:32:51;;;;;;;0.10;0.10;;;10.30;99.90;;;;;;5069973;28;20048;-74
2023/01/06 12:35:24;;;;;;;2.03;1.85;;;10.40;99.90;;;;;;5070137;28;20044;-74
2023/01/06 12:37:55;;;;;;;0.20;0.20;;;10.40;99.90;;;;;;5073981;28;20123;-74
2023/01/06 12:40:28;;;;;;;0.10;0.10;;;10.40;99.90;;;;;;5085624;28;20029;-72
2023/01/06 12:43:14;;;;;;;2.17;1.27;;;10.40;99.90;;;;;;5073939;28;20032;-72
2023/01/06 12:46:04;;;;;;;0.10;0.10;;;10.40;99.90;;;;;;5080160;28;20056;-73
2023/01/06 12:48:40;;;;;;;0.32;0.32;;;10.40;99.90;;;;;;5079744;28;20047;-73
2023/01/06 12:51:26;;;;;;;0.10;0.10;;;10.30;99.90;;;;;;5108191;28;20051;-73
2023/01/06 12:54:22;;;;;;;1.42;1.33;;;10.30;99.90;;;;;;5058078;28;20056;-72
2023/01/06 12:57:05;;;;;;;0.10;0.10;;;10.20;99.90;;;;;;5071713;28;20394;-72
2023/01/06 12:59:50;;;;;;;3.30;1.48;;;10.30;99.90;;;;;;5076760;28;20055;-72
2023/01/06 13:02:41;;;;;;;0.10;0.10;;;10.10;99.90;;;;;;5079874;28;20101;-71
2023/01/06 13:05:32;;;;;;;0.63;0.55;;;10.10;99.90;;;;;;5063659;28;20055;-73
2023/01/06 13:07:57;;;;;;;0.00;0.00;;;10.10;99.90;;;;;;5071357;28;20078;-72
2023/01/06 13:10:42;;;;;;;0.30;0.30;;;10.00;99.90;;;;;;5063267;28;20080;-73
2023/01/06 13:13:31;;;;;;;0.10;0.10;;;10.00;99.90;;;;;;5087973;28;20180;-72